Time;durP1;ratioP1;P1;durP2;ratioP2;P2;SDS_P1;SDS_P2;PMS_P1;PMS_P2;Temp;Humidity;BMP_temperature;BMP_pressure;BME280_temperature;BME280_humidity;BME280_pressure;Samples;Min_cycle;Max_cycle;Signal;HPM_P1;HPM_P2
2024/01/08 00:00:43;;;;;;;14.70;3.80;;;;;;;14.75;59.94;100296.84;107064;1263;24347;-51
2024/01/08 00:03:10;;;;;;;11.00;3.20;;;;;;;14.77;59.89;100295.00;106985;1253;25353;-53
2024/01/08 00:05:40;;;;;;;12.90;4.10;;;;;;;14.79;59.92;100295.61;107080;1257;25372;-52
2024/01/08 00:08:07;;;;;;;12.90;4.00;;;;;;;14.79;59.89;100292.45;107100;1257;25604;-52
2024/01/08 00:10:38;;;;;;;14.50;3.70;;;;;;;14.79;59.93;100295.27;107150;1254;25325;-51
2024/01/08 00:13:06;;;;;;;11.30;3.30;;;;;;;14.80;60.04;100293.98;107140;1256;23854;-51
2024/01/08 00:15:33;;;;;;;16.20;4.80;;;;;;;14.82;60.03;100292.70;106811;1256;25479;-51
2024/01/08 00:18:00;;;;;;;17.80;4.30;;;;;;;14.83;59.96;100291.74;107165;1257;25440;-52
2024/01/08 00:20:29;;;;;;;11.90;3.70;;;;;;;14.85;60.03;100290.48;107115;1257;25326;-51
2024/01/08 00:22:56;;;;;;;8.90;2.80;;;;;;;14.87;59.94;100290.90;107090;1264;25392;-52
2024/01/08 00:25:24;;;;;;;11.10;3.00;;;;;;;14.87;59.86;100287.04;107096;1256;25341;-52
2024/01/08 00:27:51;;;;;;;12.00;3.80;;;;;;;14.85;59.85;100285.89;107108;1254;22545;-52
2024/01/08 00:30:18;;;;;;;11.40;3.40;;;;;;;14.86;59.91;100283.44;107034;1257;25353;-52
2024/01/08 00:32:47;;;;;;;14.90;3.50;;;;;;;14.85;59.90;100287.13;107125;1254;24199;-51
2024/01/08 00:35:15;;;;;;;14.20;4.00;;;;;;;14.85;59.94;100287.81;107125;1256;25284;-52
2024/01/08 00:37:42;;;;;;;12.30;3.10;;;;;;;14.88;60.00;100287.84;107123;1258;25802;-51
2024/01/08 00:40:10;;;;;;;10.60;3.70;;;;;;;14.91;60.04;100288.60;107071;1257;22521;-52
2024/01/08 00:42:38;;;;;;;13.50;3.40;;;;;;;14.91;59.88;100287.56;107123;1260;22601;-52
2024/01/08 00:45:06;;;;;;;14.60;4.40;;;;;;;14.89;59.96;100284.33;106856;1260;25324;-52
2024/01/08 00:47:33;;;;;;;9.90;3.10;;;;;;;14.86;60.07;100280.09;106915;1258;25450;-52
2024/01/08 00:50:01;;;;;;;16.30;4.40;;;;;;;14.87;60.18;100283.55;106854;1259;22531;-52
2024/01/08 00:52:30;;;;;;;14.20;4.10;;;;;;;14.89;60.19;100282.58;107067;1256;22530;-52
2024/01/08 00:55:03;;;;;;;13.70;3.90;;;;;;;14.91;60.07;100287.21;107142;1260;25356;-53
2024/01/08 00:57:34;;;;;;;17.50;4.00;;;;;;;14.89;60.05;100287.30;107114;1251;23132;-52
2024/01/08 01:00:02;;;;;;;14.10;4.10;;;;;;;14.88;60.07;100289.29;107139;1259;22552;-52
2024/01/08 01:02:29;;;;;;;12.30;3.90;;;;;;;14.87;60.09;100287.06;106552;1264;25334;-52
2024/01/08 01:04:57;;;;;;;13.50;3.80;;;;;;;14.85;60.10;100281.38;107113;1257;25522;-51
2024/01/08 01:07:27;;;;;;;12.80;3.40;;;;;;;14.86;60.16;100281.70;107135;1260;25366;-51
2024/01/08 01:09:54;;;;;;;12.80;3.60;;;;;;;14.87;60.10;100280.04;107203;1253;25383;-52
2024/01/08 01:12:21;;;;;;;10.60;3.70;;;;;;;14.87;60.00;100277.27;107115;1263;25414;-52
2024/01/08 01:14:48;;;;;;;18.30;4.00;;;;;;;14.84;60.00;100273.02;106792;1261;25413;-52
2024/01/08 01:17:15;;;;;;;15.70;4.30;;;;;;;14.81;60.01;100273.51;106788;1260;25337;-52
2024/01/08 01:19:42;;;;;;;11.60;3.60;;;;;;;14.78;60.05;100270.66;107158;1254;25396;-52
2024/01/08 01:22:09;;;;;;;10.20;3.00;;;;;;;14.77;60.08;100264.64;106775;1260;25411;-53
2024/01/08 01:24:36;;;;;;;11.10;3.90;;;;;;;14.74;59.99;100260.73;106849;1261;22547;-52
2024/01/08 01:27:03;;;;;;;11.80;4.40;;;;;;;14.68;59.86;100258.20;107138;1257;25376;-52
2024/01/08 01:29:30;;;;;;;10.50;4.10;;;;;;;14.60;59.75;100257.54;107117;1257;25362;-52
2024/01/08 01:31:57;;;;;;;11.30;4.10;;;;;;;14.52;59.89;100258.63;107118;1263;25333;-52
2024/01/08 01:34:25;;;;;;;18.10;4.70;;;;;;;14.46;60.09;100261.17;107082;1254;25350;-52
2024/01/08 01:36:52;;;;;;;14.80;3.80;;;;;;;14.43;60.30;100256.26;107088;1254;25337;-52
2024/01/08 01:39:19;;;;;;;15.90;4.20;;;;;;;14.42;60.44;100256.80;107069;1254;25478;-52
2024/01/08 01:41:47;;;;;;;12.30;4.50;;;;;;;14.41;60.48;100254.92;107212;1256;25365;-52
2024/01/08 01:44:14;;;;;;;14.20;5.60;;;;;;;14.38;60.41;100256.11;107164;1253;25338;-52
2024/01/08 01:46:48;;;;;;;11.50;4.40;;;;;;;14.34;60.49;100260.48;106891;1259;25385;-52
2024/01/08 01:49:16;;;;;;;14.50;5.20;;;;;;;14.31;60.61;100254.32;107107;1257;25337;-52
2024/01/08 01:51:46;;;;;;;15.10;4.40;;;;;;;14.28;60.68;100246.95;107149;1254;25366;-52
2024/01/08 01:54:17;;;;;;;15.80;5.10;;;;;;;14.27;60.77;100248.92;107177;1256;25031;-52
2024/01/08 01:56:46;;;;;;;17.20;4.90;;;;;;;14.28;60.91;100251.69;107161;1253;25365;-52
2024/01/08 01:59:15;;;;;;;14.00;4.90;;;;;;;14.29;60.87;100248.34;107106;1254;25328;-53
2024/01/08 02:01:42;;;;;;;14.50;5.20;;;;;;;14.29;61.01;100249.73;106877;1258;23893;-54
2024/01/08 02:04:09;;;;;;;17.70;4.50;;;;;;;14.30;60.99;100245.50;106829;1254;24215;-53
2024/01/08 02:06:36;;;;;;;15.90;6.00;;;;;;;14.29;60.87;100242.89;106918;1256;25474;-51
2024/01/08 02:09:03;;;;;;;15.00;5.50;;;;;;;14.28;60.89;100238.95;106508;1259;25363;-51
2024/01/08 02:11:30;;;;;;;13.70;5.40;;;;;;;14.27;60.93;100230.59;106576;1264;25338;-52
2024/01/08 02:13:58;;;;;;;19.00;5.20;;;;;;;14.25;60.86;100229.83;106700;1259;25372;-52
2024/01/08 02:16:26;;;;;;;17.90;5.80;;;;;;;14.22;60.93;100224.39;106597;1270;25500;-51
2024/01/08 02:18:53;;;;;;;18.40;5.30;;;;;;;14.19;61.08;100217.54;106856;1251;25356;-52
2024/01/08 02:21:20;;;;;;;14.00;6.00;;;;;;;14.17;61.20;100215.52;106866;1253;25337;-51
2024/01/08 02:23:48;;;;;;;12.90;4.80;;;;;;;14.17;61.45;100219.54;107034;1256;25297;-51
2024/01/08 02:26:15;;;;;;;13.00;4.80;;;;;;;14.19;61.47;100223.13;107009;1257;25478;-52
2024/01/08 02:28:42;;;;;;;16.30;5.20;;;;;;;14.19;61.41;100221.00;107102;1255;25436;-51
2024/01/08 02:31:09;;;;;;;20.10;5.50;;;;;;;14.18;61.42;100219.86;106819;1259;25388;-52
2024/01/08 02:33:36;;;;;;;12.30;5.00;;;;;;;14.17;61.51;100219.89;106815;1261;24203;-51
2024/01/08 02:36:03;;;;;;;14.30;4.70;;;;;;;14.18;61.57;100220.20;106775;1260;25337;-51
2024/01/08 02:38:31;;;;;;;10.70;4.20;;;;;;;14.18;61.65;100220.89;107141;1257;25359;-52
2024/01/08 02:41:01;;;;;;;11.20;4.10;;;;;;;14.19;61.76;100226.27;106788;1262;25347;-51
2024/01/08 02:43:28;;;;;;;14.40;4.50;;;;;;;14.20;61.65;100222.72;107039;1254;25411;-53
2024/01/08 02:45:55;;;;;;;14.00;5.00;;;;;;;14.20;61.60;100224.98;106347;1270;629060;-52
2024/01/08 02:48:22;;;;;;;12.50;4.30;;;;;;;14.20;61.63;100221.48;107078;1256;25327;-51
2024/01/08 02:50:49;;;;;;;19.70;5.10;;;;;;;14.20;61.68;100221.84;107143;1251;25431;-51
2024/01/08 02:53:17;;;;;;;14.60;5.00;;;;;;;14.19;61.73;100224.33;107121;1257;25337;-51
2024/01/08 02:55:44;;;;;;;16.00;5.00;;;;;;;14.19;61.82;100218.39;107138;1256;25418;-51
2024/01/08 02:58:11;;;;;;;21.80;5.50;;;;;;;14.21;61.79;100215.84;107061;1254;25337;-51
2024/01/08 03:00:38;;;;;;;15.30;5.50;;;;;;;14.24;61.84;100215.22;106837;1267;25362;-51
2024/01/08 03:03:05;;;;;;;17.30;6.90;;;;;;;14.26;61.86;100215.48;107153;1257;25389;-51
2024/01/08 03:05:33;;;;;;;14.30;6.30;;;;;;;14.27;61.87;100217.34;107243;1255;25328;-51
2024/01/08 03:08:00;;;;;;;15.00;5.20;;;;;;;14.28;61.76;100214.16;106913;1256;25338;-51
2024/01/08 03:10:27;;;;;;;19.70;5.00;;;;;;;14.29;61.78;100215.20;106813;1267;25443;-52
2024/01/08 03:12:55;;;;;;;18.60;5.10;;;;;;;14.29;61.79;100212.55;107063;1254;22577;-52
2024/01/08 03:15:25;;;;;;;13.70;4.30;;;;;;;14.31;61.80;100210.54;106789;1257;24205;-51
2024/01/08 03:17:52;;;;;;;19.20;5.50;;;;;;;14.32;61.70;100207.70;107097;1253;24179;-52
2024/01/08 03:20:22;;;;;;;14.70;5.30;;;;;;;14.33;61.69;100210.96;107117;1257;25338;-52
2024/01/08 03:22:50;;;;;;;19.80;5.10;;;;;;;14.34;61.72;100211.98;107125;1266;25366;-52
2024/01/08 03:25:18;;;;;;;18.10;5.20;;;;;;;14.36;61.69;100207.50;107100;1255;24374;-52
2024/01/08 03:27:45;;;;;;;16.60;4.90;;;;;;;14.36;61.64;100206.10;107356;1253;24252;-52
2024/01/08 03:30:15;;;;;;;16.20;4.80;;;;;;;14.37;61.56;100209.56;107106;1253;25557;-52
2024/01/08 03:32:42;;;;;;;21.80;5.90;;;;;;;14.37;61.44;100217.25;107110;1251;22768;-52
2024/01/08 03:35:10;;;;;;;21.40;7.00;;;;;;;14.37;61.43;100220.23;107184;1257;25390;-52
2024/01/08 03:37:38;;;;;;;16.90;6.00;;;;;;;14.36;61.38;100221.64;107033;1256;25328;-52
2024/01/08 03:40:06;;;;;;;25.70;7.20;;;;;;;14.37;61.41;100224.23;107196;1257;25363;-52
2024/01/08 03:42:33;;;;;;;19.90;6.90;;;;;;;14.38;61.32;100222.45;106833;1258;22643;-52
2024/01/08 03:45:00;;;;;;;25.00;8.20;;;;;;;14.39;61.28;100227.64;107036;1257;25414;-52
2024/01/08 03:47:27;;;;;;;23.00;9.10;;;;;;;14.38;61.17;100228.19;107055;1253;25315;-52
2024/01/08 03:49:55;;;;;;;24.70;9.90;;;;;;;14.38;61.03;100233.97;107095;1259;25328;-52
2024/01/08 03:52:22;;;;;;;23.60;9.60;;;;;;;14.37;61.04;100237.51;106869;1261;25438;-52
2024/01/08 03:54:49;;;;;;;22.90;10.30;;;;;;;14.35;60.92;100237.92;106860;1267;22520;-53
2024/01/08 03:57:16;;;;;;;22.60;10.50;;;;;;;14.34;60.94;100236.92;106871;1258;22520;-52
2024/01/08 03:59:45;;;;;;;25.70;10.30;;;;;;;14.33;60.85;100243.62;107184;1260;25347;-52
2024/01/08 04:02:12;;;;;;;20.60;10.00;;;;;;;14.31;60.76;100237.05;107048;1256;25362;-52
2024/01/08 04:04:40;;;;;;;21.70;10.10;;;;;;;14.28;60.76;100241.20;107034;1251;25518;-52
2024/01/08 04:07:11;;;;;;;17.80;10.40;;;;;;;14.27;60.72;100240.55;106970;1253;25347;-52
2024/01/08 04:09:41;;;;;;;19.20;9.80;;;;;;;14.25;60.79;100245.00;106887;1259;25366;-51
2024/01/08 04:12:08;;;;;;;24.20;10.60;;;;;;;14.23;60.73;100243.65;107081;1257;25455;-52
2024/01/08 04:14:35;;;;;;;18.60;10.00;;;;;;;14.20;60.72;100245.20;106868;1259;25363;-51
2024/01/08 04:17:05;;;;;;;21.80;11.60;;;;;;;14.18;60.70;100250.20;107163;1256;23946;-52
2024/01/08 04:19:33;;;;;;;20.30;9.70;;;;;;;14.14;60.65;100249.33;106852;1256;22518;-52
2024/01/08 04:22:00;;;;;;;16.70;9.20;;;;;;;14.11;60.75;100249.64;107220;1250;25338;-52
2024/01/08 04:24:27;;;;;;;16.50;9.40;;;;;;;14.08;60.79;100248.92;107062;1253;25362;-52
2024/01/08 04:26:54;;;;;;;17.00;9.60;;;;;;;14.05;60.90;100251.32;107120;1253;25353;-52
2024/01/08 04:29:21;;;;;;;18.40;10.20;;;;;;;14.04;61.01;100255.89;107113;1257;25382;-52
2024/01/08 04:31:48;;;;;;;18.20;9.00;;;;;;;14.03;60.88;100253.85;106906;1259;25484;-52
2024/01/08 04:34:16;;;;;;;14.50;8.40;;;;;;;14.02;60.93;100257.90;107104;1256;25325;-52
2024/01/08 04:36:43;;;;;;;13.50;8.40;;;;;;;13.98;60.89;100257.38;106853;1259;25494;-52
2024/01/08 04:39:10;;;;;;;13.20;8.70;;;;;;;13.94;60.91;100257.89;107149;1256;25334;-52
2024/01/08 04:41:37;;;;;;;10.40;6.80;;;;;;;13.90;60.95;100256.83;107111;1257;25415;-51
2024/01/08 04:44:05;;;;;;;12.40;7.50;;;;;;;13.89;60.98;100261.94;107148;1256;25343;-51
2024/01/08 04:46:32;;;;;;;15.10;7.90;;;;;;;13.87;61.02;100262.55;106847;1259;25488;-52
2024/01/08 04:48:59;;;;;;;12.20;6.80;;;;;;;13.85;61.01;100263.35;106961;1258;25287;-52
2024/01/08 04:51:26;;;;;;;10.10;6.40;;;;;;;13.83;61.04;100268.15;106727;1267;25356;-51
2024/01/08 04:53:53;;;;;;;10.50;7.00;;;;;;;13.80;61.09;100272.25;107090;1257;25484;-51
2024/01/08 04:56:24;;;;;;;12.00;6.70;;;;;;;13.78;61.16;100277.77;106756;1259;25363;-52
2024/01/08 04:58:52;;;;;;;9.50;6.20;;;;;;;13.77;61.28;100275.00;107068;1256;22537;-52
2024/01/08 05:01:19;;;;;;;11.30;6.60;;;;;;;13.77;61.17;100274.16;107148;1259;25399;-52
2024/01/08 05:03:46;;;;;;;8.40;5.40;;;;;;;13.76;61.21;100280.48;107102;1256;25501;-52
2024/01/08 05:06:13;;;;;;;10.60;5.60;;;;;;;13.74;61.07;100276.38;107076;1251;22531;-52
2024/01/08 05:08:40;;;;;;;13.10;6.30;;;;;;;13.70;61.01;100286.80;107148;1263;25445;-51
2024/01/08 05:11:07;;;;;;;26.50;13.10;;;;;;;13.66;61.14;100286.98;107068;1255;25337;-52
2024/01/08 05:13:34;;;;;;;28.30;14.50;;;;;;;13.64;61.24;100290.23;107117;1255;24208;-52
2024/01/08 05:16:01;;;;;;;22.60;13.80;;;;;;;13.61;61.16;100296.27;107118;1263;23871;-51
2024/01/08 05:18:28;;;;;;;14.20;8.90;;;;;;;13.56;61.26;100301.16;107109;1253;25325;-52
2024/01/08 05:20:56;;;;;;;11.70;6.20;;;;;;;13.54;61.27;100305.79;107191;1254;25545;-52
2024/01/08 05:23:23;;;;;;;11.40;6.00;;;;;;;13.51;61.24;100311.30;107063;1256;25356;-52
2024/01/08 05:25:50;;;;;;;13.30;6.20;;;;;;;13.49;61.27;100318.02;107074;1257;25353;-52
2024/01/08 05:28:17;;;;;;;11.40;5.30;;;;;;;13.48;61.27;100322.60;107151;1254;25328;-52
2024/01/08 05:30:44;;;;;;;10.70;5.70;;;;;;;13.44;61.21;100323.08;107023;1257;25334;-52
2024/01/08 05:33:12;;;;;;;15.20;5.70;;;;;;;13.42;61.20;100327.90;107097;1256;25475;-52
2024/01/08 05:35:40;;;;;;;10.00;5.30;;;;;;;13.38;61.17;100333.65;106790;1257;25363;-51
2024/01/08 05:38:07;;;;;;;8.20;5.50;;;;;;;13.33;61.11;100334.72;107095;1266;25324;-52
2024/01/08 05:40:34;;;;;;;9.10;5.00;;;;;;;13.27;61.04;100338.77;107023;1263;25387;-51
2024/01/08 05:43:01;;;;;;;9.50;4.50;;;;;;;13.21;61.10;100337.28;107059;1257;25411;-51
2024/01/08 05:45:28;;;;;;;6.90;4.50;;;;;;;13.16;61.15;100343.39;107110;1256;25335;-51
2024/01/08 05:47:56;;;;;;;6.70;4.20;;;;;;;13.12;61.31;100345.64;107104;1257;25356;-51
2024/01/08 05:50:27;;;;;;;7.30;4.20;;;;;;;13.08;61.30;100347.86;107141;1256;25334;-51
2024/01/08 05:52:54;;;;;;;7.60;3.70;;;;;;;13.04;61.35;100349.21;107167;1256;25356;-52
2024/01/08 05:55:23;;;;;;;8.10;3.80;;;;;;;13.00;61.50;100345.69;106661;1270;25449;-52
2024/01/08 05:57:50;;;;;;;7.60;3.70;;;;;;;12.99;61.59;100349.92;107177;1263;25375;-51
2024/01/08 06:00:17;;;;;;;8.20;3.80;;;;;;;12.97;61.46;100353.46;107042;1257;25365;-52
2024/01/08 06:02:44;;;;;;;6.90;3.50;;;;;;;12.93;61.44;100349.29;106948;1256;25414;-52
2024/01/08 06:05:11;;;;;;;5.90;3.10;;;;;;;12.88;61.35;100349.30;107009;1251;25328;-51
2024/01/08 06:07:43;;;;;;;6.40;2.90;;;;;;;12.85;61.52;100355.48;106854;1257;25405;-51
2024/01/08 06:10:10;;;;;;;8.40;3.50;;;;;;;12.83;61.57;100352.45;107053;1256;25488;-51
2024/01/08 06:12:37;;;;;;;4.10;2.60;;;;;;;12.80;61.52;100355.52;106763;1269;25366;-51
2024/01/08 06:15:05;;;;;;;6.30;2.50;;;;;;;12.78;61.54;100353.67;107054;1256;25388;-52
2024/01/08 06:17:33;;;;;;;8.10;2.60;;;;;;;12.74;61.39;100355.05;107209;1256;25338;-51
2024/01/08 06:20:00;;;;;;;5.50;2.50;;;;;;;12.70;61.38;100356.08;107112;1258;25478;-51
2024/01/08 06:22:28;;;;;;;5.90;2.40;;;;;;;12.66;61.41;100357.95;106822;1259;25334;-52
2024/01/08 06:24:55;;;;;;;3.60;1.60;;;;;;;12.60;61.28;100356.42;106384;1263;1002841;-51
2024/01/08 06:27:23;;;;;;;9.20;3.00;;;;;;;12.57;61.26;100362.30;107055;1257;25401;-51
2024/01/08 06:29:50;;;;;;;7.70;2.60;;;;;;;12.56;61.40;100367.73;106788;1254;24240;-51
2024/01/08 06:32:17;;;;;;;4.90;2.10;;;;;;;12.55;61.36;100368.29;106906;1258;25334;-52
2024/01/08 06:34:44;;;;;;;6.50;2.10;;;;;;;12.52;61.32;100373.95;105983;1257;1002640;-51
2024/01/08 06:37:11;;;;;;;5.50;1.70;;;;;;;12.48;61.08;100381.73;106997;1259;23475;-52
2024/01/08 06:39:38;;;;;;;4.10;1.60;;;;;;;12.45;61.18;100382.37;106586;1260;25401;-53
2024/01/08 06:42:05;;;;;;;4.40;2.20;;;;;;;12.42;61.19;100384.91;106924;1256;25456;-51
2024/01/08 06:44:32;;;;;;;5.30;1.30;;;;;;;12.38;61.19;100388.02;107102;1266;25338;-51
2024/01/08 06:46:59;;;;;;;8.10;1.90;;;;;;;12.35;61.09;100386.73;107107;1257;25421;-51
2024/01/08 06:49:27;;;;;;;6.30;1.80;;;;;;;12.32;61.12;100390.67;106706;1260;25307;-51
2024/01/08 06:51:54;;;;;;;3.70;1.30;;;;;;;12.28;60.92;100396.73;105956;1269;1002824;-51
2024/01/08 06:54:21;;;;;;;4.40;1.30;;;;;;;12.24;60.83;100399.80;106644;1266;25383;-51
2024/01/08 06:56:48;;;;;;;4.70;1.50;;;;;;;12.20;60.90;100401.67;105483;1271;1003750;-52
2024/01/08 06:59:16;;;;;;;5.70;2.00;;;;;;;12.18;60.84;100403.31;106754;1257;25422;-51
2024/01/08 07:01:43;;;;;;;6.50;1.40;;;;;;;12.14;60.88;100404.34;106773;1272;25369;-51
2024/01/08 07:04:10;;;;;;;2.60;1.20;;;;;;;12.11;60.84;100411.73;105733;1264;1003494;-52
2024/01/08 07:06:37;;;;;;;6.50;1.60;;;;;;;12.07;60.88;100414.98;106801;1259;25345;-51
2024/01/08 07:09:06;;;;;;;8.60;1.80;;;;;;;12.04;60.73;100416.33;106789;1261;25527;-51
2024/01/08 07:11:33;;;;;;;4.20;1.20;;;;;;;11.99;60.71;100421.33;106004;1262;1003067;-51
2024/01/08 07:14:00;;;;;;;3.80;1.40;;;;;;;11.96;60.68;100423.89;106771;1259;25593;-52
2024/01/08 07:16:27;;;;;;;5.60;1.30;;;;;;;11.93;60.70;100430.44;106487;1275;25484;-51
2024/01/08 07:18:54;;;;;;;4.00;1.30;;;;;;;11.91;60.72;100436.57;106787;1259;25412;-51
2024/01/08 07:21:22;;;;;;;5.10;1.60;;;;;;;11.89;60.63;100440.48;106316;1253;1003198;-51
2024/01/08 07:23:50;;;;;;;7.90;2.20;;;;;;;11.87;60.60;100442.45;106392;1258;1003104;-52
2024/01/08 07:26:17;;;;;;;4.40;1.70;;;;;;;11.83;60.40;100441.37;107173;1254;25443;-51
2024/01/08 07:28:45;;;;;;;7.00;2.70;;;;;;;11.78;60.40;100445.87;107226;1253;25372;-51
2024/01/08 07:31:18;;;;;;;6.30;2.70;;;;;;;11.74;60.32;100452.58;107117;1256;25443;-51
2024/01/08 07:33:44;;;;;;;9.80;2.50;;;;;;;11.67;60.12;100451.42;107068;1257;25411;-51
2024/01/08 07:36:13;;;;;;;7.10;2.10;;;;;;;11.61;60.03;100450.20;107087;1254;25356;-51
2024/01/08 07:38:40;;;;;;;5.90;2.20;;;;;;;11.54;59.87;100454.23;106853;1270;25414;-51
2024/01/08 07:41:07;;;;;;;7.80;2.50;;;;;;;11.49;59.98;100461.13;107060;1256;25337;-51
2024/01/08 07:43:37;;;;;;;8.50;2.20;;;;;;;11.43;60.00;100463.75;107080;1254;25475;-51
2024/01/08 07:46:04;;;;;;;5.40;1.80;;;;;;;11.37;60.11;100469.13;107059;1256;25439;-51
2024/01/08 07:48:31;;;;;;;6.00;2.30;;;;;;;11.35;60.19;100471.63;106745;1259;25344;-51
2024/01/08 07:51:00;;;;;;;5.80;2.00;;;;;;;11.31;60.13;100479.73;106764;1259;25436;-53
2024/01/08 07:53:27;;;;;;;4.50;1.70;;;;;;;11.28;59.99;100481.91;106124;1262;1003072;-51
2024/01/08 07:55:54;;;;;;;7.80;2.20;;;;;;;11.24;60.02;100488.26;107076;1258;25487;-51
2024/01/08 07:58:21;;;;;;;6.30;2.10;;;;;;;11.19;60.00;100492.76;107140;1259;25375;-52
2024/01/08 08:01:02;;;;;;;9.20;2.30;;;;;;;11.11;59.65;100497.52;107053;1256;25446;-51
2024/01/08 08:03:29;;;;;;;6.90;2.20;;;;;;;11.05;59.59;100501.67;106822;1264;22954;-51
2024/01/08 08:05:58;;;;;;;5.80;2.30;;;;;;;11.01;59.57;100507.14;106868;1274;25337;-51
2024/01/08 08:08:25;;;;;;;3.60;1.20;;;;;;;10.96;59.66;100514.92;106756;1260;24465;-51
2024/01/08 08:10:53;;;;;;;4.90;1.50;;;;;;;10.90;59.36;100517.70;107192;1263;25363;-51
2024/01/08 08:13:19;;;;;;;3.50;1.60;;;;;;;10.83;59.26;100529.67;107165;1257;22526;-51
2024/01/08 08:15:47;;;;;;;3.30;1.10;;;;;;;10.77;59.36;100535.58;107095;1258;25487;-51
2024/01/08 08:18:13;;;;;;;7.20;1.40;;;;;;;10.75;59.26;100538.06;107172;1253;25356;-51
2024/01/08 08:20:41;;;;;;;4.10;1.50;;;;;;;10.69;59.21;100538.55;107021;1253;25353;-51
2024/01/08 08:23:08;;;;;;;5.60;2.10;;;;;;;10.67;59.28;100550.58;106883;1266;25382;-51
2024/01/08 08:25:35;;;;;;;5.80;1.90;;;;;;;10.66;59.34;100554.95;106887;1266;25356;-53
2024/01/08 08:28:03;;;;;;;5.90;1.80;;;;;;;10.63;59.08;100556.23;107017;1257;24187;-51
2024/01/08 08:30:31;;;;;;;2.60;0.90;;;;;;;10.62;59.25;100566.66;106903;1267;23884;-52
2024/01/08 08:32:58;;;;;;;4.40;1.40;;;;;;;10.60;59.18;100562.74;106770;1250;22650;-50
2024/01/08 08:35:26;;;;;;;5.30;1.80;;;;;;;10.56;59.03;100576.02;106841;1266;25303;-51
2024/01/08 08:37:56;;;;;;;3.50;1.70;;;;;;;10.54;59.11;100583.17;106964;1267;25363;-51
2024/01/08 08:40:23;;;;;;;2.90;0.90;;;;;;;10.52;59.04;100587.38;106980;1274;22525;-51
2024/01/08 08:42:51;;;;;;;6.90;1.80;;;;;;;10.48;58.84;100595.78;107126;1267;25442;-50
2024/01/08 08:45:18;;;;;;;7.10;1.50;;;;;;;10.42;58.75;100594.91;106843;1269;25337;-50
2024/01/08 08:47:46;;;;;;;5.50;1.40;;;;;;;10.35;58.74;100599.58;107165;1267;25391;-51
2024/01/08 08:50:13;;;;;;;3.20;1.00;;;;;;;10.32;58.62;100605.38;107125;1268;25329;-51
2024/01/08 08:52:43;;;;;;;1.70;1.00;;;;;;;10.27;58.55;100606.00;106916;1259;25517;-50
2024/01/08 08:55:10;;;;;;;4.60;1.00;;;;;;;10.19;58.40;100607.23;107145;1257;25411;-51
2024/01/08 08:57:38;;;;;;;2.80;1.20;;;;;;;10.14;58.54;100613.77;107134;1254;25353;-50
2024/01/08 09:00:09;;;;;;;4.90;1.20;;;;;;;10.09;58.84;100613.32;107035;1259;25449;-50
2024/01/08 09:02:36;;;;;;;4.80;1.30;;;;;;;10.08;58.94;100623.73;107205;1266;22520;-51
2024/01/08 09:05:05;;;;;;;4.00;1.30;;;;;;;10.06;59.07;100621.70;107159;1263;22643;-51
2024/01/08 09:07:32;;;;;;;3.40;1.10;;;;;;;10.04;58.91;100624.17;107011;1267;22572;-51
2024/01/08 09:10:00;;;;;;;2.90;1.10;;;;;;;9.97;58.75;100626.39;106311;1257;1003040;-51
2024/01/08 09:12:27;;;;;;;4.10;1.50;;;;;;;9.85;58.69;100625.96;106757;1259;25324;-52
2024/01/08 09:14:55;;;;;;;3.50;1.60;;;;;;;9.81;58.83;100626.05;107138;1267;22530;-50
2024/01/08 09:17:22;;;;;;;2.40;1.30;;;;;;;9.68;58.91;100623.73;107161;1266;25325;-52
2024/01/08 09:19:51;;;;;;;3.30;1.10;;;;;;;9.61;59.10;100630.60;106369;1267;1003668;-51
2024/01/08 09:22:23;;;;;;;2.00;1.00;;;;;;;9.54;59.29;100633.69;107133;1266;25516;-51
2024/01/08 09:24:50;;;;;;;3.20;1.60;;;;;;;9.47;59.13;100638.16;106901;1260;25328;-51
2024/01/08 09:27:17;;;;;;;3.70;1.60;;;;;;;9.47;59.02;100638.69;106990;1261;25337;-51
2024/01/08 09:29:44;;;;;;;3.60;1.40;;;;;;;9.42;59.05;100642.23;107116;1254;25545;-51
2024/01/08 09:32:11;;;;;;;3.60;1.30;;;;;;;9.42;59.35;100645.02;106841;1266;23345;-51
2024/01/08 09:34:39;;;;;;;1.30;1.20;;;;;;;9.36;59.18;100644.79;107090;1270;25484;-51
2024/01/08 09:37:06;;;;;;;1.80;1.50;;;;;;;9.30;59.11;100648.86;106822;1259;25363;-50
2024/01/08 09:39:33;;;;;;;4.00;1.10;;;;;;;9.25;59.06;100650.35;106811;1266;25418;-51
2024/01/08 09:42:01;;;;;;;2.60;1.30;;;;;;;9.19;58.96;100650.30;107271;1266;22569;-51
2024/01/08 09:44:29;;;;;;;3.00;1.40;;;;;;;9.10;59.00;100648.20;107103;1266;25388;-51
2024/01/08 09:46:56;;;;;;;2.90;1.40;;;;;;;9.04;59.12;100651.25;107025;1253;25232;-51
2024/01/08 09:49:23;;;;;;;2.40;1.50;;;;;;;9.05;59.38;100654.16;107124;1257;25475;-51
2024/01/08 09:51:50;;;;;;;2.50;1.20;;;;;;;8.98;59.10;100648.40;106986;1259;25366;-51
2024/01/08 09:54:20;;;;;;;1.80;1.40;;;;;;;8.92;59.11;100650.58;107092;1256;25356;-51
2024/01/08 09:56:53;;;;;;;1.30;1.10;;;;;;;8.78;58.92;100643.55;106275;1272;1003370;-51
2024/01/08 09:59:19;;;;;;;1.20;1.10;;;;;;;8.71;59.11;100658.36;107205;1266;22535;-51
2024/01/08 10:01:47;;;;;;;1.10;0.90;;;;;;;8.66;59.21;100657.23;106359;1259;1003701;-50
2024/01/08 10:04:14;;;;;;;2.00;1.30;;;;;;;8.57;59.42;100664.27;107181;1266;25385;-51
2024/01/08 10:06:43;;;;;;;2.70;1.40;;;;;;;8.54;59.64;100663.80;106890;1267;25477;-51
2024/01/08 10:09:12;;;;;;;1.90;1.10;;;;;;;8.52;59.59;100674.58;106920;1267;25243;-51
2024/01/08 10:11:39;;;;;;;2.40;1.20;;;;;;;8.44;59.47;100675.55;106497;1253;1003381;-50
2024/01/08 10:14:07;;;;;;;1.50;1.10;;;;;;;8.37;59.41;100674.09;107146;1257;25487;-51
2024/01/08 10:16:34;;;;;;;2.70;1.40;;;;;;;8.32;59.37;100676.23;107126;1257;25411;-51
2024/01/08 10:19:24;;;;;;;2.20;1.20;;;;;;;8.30;59.76;100677.65;106932;1266;25414;-51
2024/01/08 10:22:08;;;;;;;1.60;1.10;;;;;;;8.25;59.77;100681.50;107079;1256;25452;-51
2024/01/08 10:24:36;;;;;;;3.80;1.30;;;;;;;8.19;59.87;100686.73;106851;1259;25353;-53
2024/01/08 10:27:03;;;;;;;3.00;1.40;;;;;;;8.20;59.79;100691.73;107009;1273;25366;-52
2024/01/08 10:29:31;;;;;;;2.30;1.00;;;;;;;8.18;59.72;100685.73;106448;1266;1003007;-52
2024/01/08 10:31:59;;;;;;;1.90;1.30;;;;;;;8.17;59.69;100691.95;106443;1271;1002762;-51
2024/01/08 10:34:26;;;;;;;2.70;1.20;;;;;;;8.17;59.69;100692.30;106087;1260;1003043;-51
2024/01/08 10:36:53;;;;;;;1.60;1.00;;;;;;;8.15;59.56;100692.31;106555;1271;25407;-51
2024/01/08 10:39:21;;;;;;;2.40;1.50;;;;;;;8.13;59.78;100697.19;106900;1267;25338;-51
2024/01/08 10:41:57;;;;;;;3.50;2.10;;;;;;;8.06;59.57;100694.16;107054;1266;24241;-51
2024/01/08 10:44:25;;;;;;;2.40;1.50;;;;;;;8.04;59.54;100705.77;107188;1267;25404;-51
2024/01/08 10:46:59;;;;;;;3.90;1.80;;;;;;;8.00;59.39;100711.70;106324;1271;1003698;-51
2024/01/08 10:49:32;;;;;;;2.90;1.40;;;;;;;8.02;59.60;100717.19;107105;1254;22530;-51
2024/01/08 10:52:00;;;;;;;3.30;1.30;;;;;;;8.02;59.61;100719.10;107216;1267;22527;-51
2024/01/08 10:54:45;;;;;;;2.60;1.60;;;;;;;8.01;59.20;100716.86;106391;1267;1003604;-51
2024/01/08 10:57:12;;;;;;;1.90;1.80;;;;;;;7.97;59.04;100716.38;107099;1256;24246;-51
2024/01/08 10:59:40;;;;;;;6.20;3.60;;;;;;;7.93;59.01;100725.77;107010;1272;25423;-51
2024/01/08 11:02:07;;;;;;;4.30;3.50;;;;;;;7.89;58.92;100726.68;106993;1256;25373;-51
2024/01/08 11:04:34;;;;;;;6.20;4.50;;;;;;;7.87;59.00;100731.20;106960;1267;25346;-51
2024/01/08 11:07:03;;;;;;;5.00;3.50;;;;;;;7.78;58.88;100730.95;107144;1267;25500;-51
2024/01/08 11:09:30;;;;;;;5.60;4.10;;;;;;;7.72;58.97;100733.26;106833;1275;25362;-51
2024/01/08 11:11:57;;;;;;;4.80;4.00;;;;;;;7.65;58.69;100739.54;107083;1267;25366;-51
2024/01/08 11:14:27;;;;;;;5.70;3.70;;;;;;;7.58;58.54;100744.09;106859;1267;25353;-52
2024/01/08 11:16:54;;;;;;;3.50;3.00;;;;;;;7.56;58.41;100740.67;106639;1267;25404;-51